If you wish to contribute or participate in the discussions about articles you are invited to join SKYbrary as a registered user

 Actions

Nancy-Ochey (BA 133) Air Base

From SKYbrary Wiki

LFSO
Airport
ICAO: LFSO
Summary
Name Nancy-Ochey (BA 133) Air Base
Region Europe
Territory France FR.gif
Location , Lorraine
Serving Nancy
Elevation 337.109 m
1,106 ft
1,106 ft337.109 m
Type medium airport
Coordinates 48° 34' 59.00" N, 5° 57' 18.00" E
Runways
Designator Length Width Surface ROPS
2/20 2401 m7,877.297 ft
45 m147.638 ft
CON /


METAR
Observation LFSO 201300Z AUTO 23014KT 9999 OVC032 08/03 Q1020 NOSIG
Station Nancy / Ochey
Date/Time 20 February 2020 13:00:00
Wind direction 230°
Wind speed 14 kts
Lowest cloud amount overcast
Temperature 8°C
Dew point 3°C
Humidity 70%
QNH 1020 hPa
Weather condition n/a